Time;durP1;ratioP1;P1;durP2;ratioP2;P2;SDS_P1;SDS_P2;PMS_P1;PMS_P2;Temp;Humidity;BMP_temperature;BMP_pressure;BME280_temperature;BME280_humidity;BME280_pressure;Samples;Min_cycle;Max_cycle;Signal;HPM_P1;HPM_P2
2022/12/06 00:01:04;;;;;;;17.15;6.90;;;;;;;10.92;100.00;98864.91;5101367;28;20131;-92
2022/12/06 00:03:30;;;;;;;12.68;6.90;;;;;;;10.98;100.00;98882.53;5100032;28;20047;-93
2022/12/06 00:06:00;;;;;;;14.55;6.68;;;;;;;10.74;100.00;98847.66;5095266;28;20036;-92
2022/12/06 00:08:27;;;;;;;13.95;6.60;;;;;;;10.80;100.00;98854.59;5114755;27;20040;-94
2022/12/06 00:11:06;;;;;;;11.50;6.75;;;;;;;10.81;100.00;98859.03;5113563;27;20059;-92
2022/12/06 00:13:32;;;;;;;15.23;6.65;;;;;;;10.71;100.00;98838.88;5100797;28;20055;-93
2022/12/06 00:16:00;;;;;;;12.00;6.07;;;;;;;10.88;100.00;98869.44;5095558;28;20048;-94
2022/12/06 00:18:26;;;;;;;16.27;6.83;;;;;;;10.67;100.00;98832.81;5096052;28;20086;-92
2022/12/06 00:20:52;;;;;;;17.02;6.70;;;;;;;10.87;100.00;98859.72;5099247;28;20138;-89
2022/12/06 00:23:20;;;;;;;14.02;6.55;;;;;;;10.70;100.00;98838.03;5103443;28;20075;-91
2022/12/06 00:25:46;;;;;;;13.82;5.60;;;;;;;10.66;100.00;98829.25;5115253;27;20032;-92
2022/12/06 00:28:13;;;;;;;17.17;6.18;;;;;;;10.69;100.00;98823.84;5100330;28;20039;-93
2022/12/06 00:30:39;;;;;;;10.07;5.20;;;;;;;10.71;100.00;98825.59;5095991;28;21235;-93
2022/12/06 00:33:06;;;;;;;14.13;5.55;;;;;;;10.86;100.00;98857.09;5115308;27;20044;-94
2022/12/06 00:35:35;;;;;;;13.68;5.63;;;;;;;10.80;100.00;98846.63;5096050;28;20128;-93
2022/12/06 00:38:01;;;;;;;14.23;5.35;;;;;;;10.72;100.00;98827.34;5116518;27;20054;-92
2022/12/06 00:40:27;;;;;;;14.95;5.97;;;;;;;10.78;100.00;98833.38;5096770;28;20120;-93
2022/12/06 00:42:53;;;;;;;12.95;5.80;;;;;;;10.74;100.00;98821.06;5098176;28;20382;-93
2022/12/06 00:45:20;;;;;;;13.00;6.55;;;;;;;10.84;100.00;98833.22;5101015;28;20500;-93
2022/12/06 00:47:49;;;;;;;14.70;5.45;;;;;;;10.64;100.00;98803.59;5095198;28;20450;-94
2022/12/06 00:50:16;;;;;;;12.60;5.78;;;;;;;10.87;100.00;98851.75;5110285;27;20036;-92
2022/12/06 00:52:45;;;;;;;12.35;5.68;;;;;;;10.70;100.00;98811.44;5100695;28;20552;-91
2022/12/06 00:55:13;;;;;;;16.65;5.50;;;;;;;10.62;100.00;98800.97;5098645;28;20052;-94
2022/12/06 00:57:42;;;;;;;10.20;5.35;;;;;;;10.77;100.00;98826.28;5096500;28;20450;-93
2022/12/06 01:00:09;;;;;;;11.88;5.10;;;;;;;10.69;100.00;98831.84;5104735;28;20054;-93
2022/12/06 01:02:37;;;;;;;11.93;5.65;;;;;;;10.69;100.00;98830.94;5102759;28;20035;-92
2022/12/06 01:05:03;;;;;;;14.75;6.30;;;;;;;10.61;100.00;98798.38;5103615;28;20065;-92
2022/12/06 01:07:29;;;;;;;14.02;6.28;;;;;;;10.62;100.00;98798.31;5107415;28;20463;-92
2022/12/06 01:09:57;;;;;;;11.70;5.72;;;;;;;10.77;100.00;98822.78;5101935;28;20422;-94
2022/12/06 01:12:23;;;;;;;13.43;6.05;;;;;;;10.82;100.00;98835.03;5098911;28;20101;-94
2022/12/06 01:14:49;;;;;;;14.05;6.75;;;;;;;10.85;100.00;98834.94;5098686;28;20040;-94
2022/12/06 01:17:15;;;;;;;13.90;6.82;;;;;;;10.88;100.00;98832.19;5101487;28;20461;-91
2022/12/06 01:19:42;;;;;;;12.63;6.80;;;;;;;10.86;100.00;98833.16;5101480;28;20084;-92
2022/12/06 01:22:08;;;;;;;12.15;6.43;;;;;;;10.85;100.00;98826.97;5126297;27;20369;-93
2022/12/06 01:24:34;;;;;;;11.32;6.05;;;;;;;10.75;100.00;98806.84;5116279;27;20038;-93
2022/12/06 01:27:03;;;;;;;11.43;5.70;;;;;;;10.73;100.00;98802.50;5105240;27;20126;-92
2022/12/06 01:29:28;;;;;;;11.63;4.87;;;;;;;10.74;100.00;98799.78;5104898;27;20048;-94
2022/12/06 01:31:54;;;;;;;11.60;5.10;;;;;;;10.95;100.00;98834.69;5104212;27;20044;-94
2022/12/06 01:34:20;;;;;;;12.20;5.32;;;;;;;10.88;100.00;98826.88;5102974;27;20527;-92
2022/12/06 01:36:52;;;;;;;9.25;4.70;;;;;;;10.89;100.00;98830.44;5098619;27;20040;-92
2022/12/06 01:39:19;;;;;;;16.80;5.10;;;;;;;10.68;100.00;98789.31;5103389;27;20043;-91
2022/12/06 01:41:45;;;;;;;9.02;4.72;;;;;;;10.70;100.00;98803.44;5104847;27;20042;-93
2022/12/06 01:44:42;;;;;;;14.55;5.32;;;;;;;10.82;100.00;98818.19;5107589;27;20134;-96
2022/12/06 01:47:17;;;;;;;11.00;5.05;;;;;;;10.74;100.00;98804.25;5100331;27;20054;-93
2022/12/06 01:49:52;;;;;;;12.93;5.70;;;;;;;10.87;100.00;98813.63;5136532;27;20096;-93
2022/12/06 01:52:25;;;;;;;12.15;5.47;;;;;;;10.82;100.00;98799.56;5104283;28;20044;-93
2022/12/06 01:54:52;;;;;;;10.82;5.38;;;;;;;10.82;100.00;98807.56;5101725;27;20053;-90
2022/12/06 01:57:21;;;;;;;10.77;4.65;;;;;;;11.02;100.00;98836.28;5101708;27;20035;-92
2022/12/06 01:59:47;;;;;;;;;;;;;;;11.01;100.00;98830.06;5105815;28;20039;-94
2022/12/06 02:02:13;;;;;;;12.50;5.00;;;;;;;10.79;100.00;98787.22;5122896;27;19952;-94
2022/12/06 02:04:40;;;;;;;12.55;4.72;;;;;;;10.80;100.00;98794.31;5104495;28;20052;-93
2022/12/06 02:07:10;;;;;;;12.55;5.13;;;;;;;10.94;100.00;98822.31;5105546;27;20047;-92
2022/12/06 02:09:41;;;;;;;11.77;5.13;;;;;;;10.93;100.00;98820.56;5104960;27;20035;-92
2022/12/06 02:12:12;;;;;;;9.70;4.22;;;;;;;10.87;100.00;98814.50;5107033;27;20628;-91
2022/12/06 02:14:39;;;;;;;8.50;4.28;;;;;;;10.86;100.00;98812.78;5107263;27;20051;-92
2022/12/06 02:17:17;;;;;;;9.35;4.65;;;;;;;10.73;100.00;98786.53;5108124;27;20547;-93
2022/12/06 02:19:59;;;;;;;12.02;5.00;;;;;;;10.88;100.00;98818.03;5099750;28;20070;-91
2022/12/06 02:22:34;;;;;;;8.93;4.20;;;;;;;10.85;100.00;98804.81;5108857;27;20063;-93
2022/12/06 02:25:26;;;;;;;10.50;4.30;;;;;;;10.85;100.00;98803.03;5100226;28;20031;-94
2022/12/06 02:28:14;;;;;;;9.57;4.75;;;;;;;10.84;100.00;98795.06;5099393;28;20488;-92
2022/12/06 02:30:46;;;;;;;10.40;5.63;;;;;;;10.72;100.00;98767.03;5102773;27;20035;-91
2022/12/06 02:33:21;;;;;;;11.38;4.50;;;;;;;10.67;100.00;98755.69;5103390;27;20502;-91
2022/12/06 02:35:53;;;;;;;8.23;4.53;;;;;;;10.81;100.00;98779.22;5110631;27;20046;-92
2022/12/06 02:38:29;;;;;;;10.43;4.32;;;;;;;10.72;100.00;98763.53;5115840;27;20036;-93
2022/12/06 02:40:58;;;;;;;8.38;4.60;;;;;;;10.82;100.00;98789.81;5106636;28;20066;-94
2022/12/06 02:43:27;;;;;;;12.57;4.70;;;;;;;10.65;100.00;98753.06;5103619;27;20096;-92
2022/12/06 02:45:58;;;;;;;7.97;4.03;;;;;;;10.60;100.00;98728.34;5098896;28;20044;-92
2022/12/06 02:48:25;;;;;;;13.10;4.50;;;;;;;10.85;99.40;98786.19;5101308;28;20031;-93
2022/12/06 02:50:55;;;;;;;11.93;4.60;;;;;;;10.74;98.80;98753.72;5106015;27;20046;-94
2022/12/06 02:53:25;;;;;;;12.93;4.38;;;;;;;10.63;98.72;98735.41;5104987;27;20066;-93
2022/12/06 02:55:51;;;;;;;12.30;4.13;;;;;;;10.74;98.82;98740.41;5106384;27;20450;-93
2022/12/06 02:58:18;;;;;;;11.88;4.40;;;;;;;10.60;97.86;98728.34;5101543;27;20419;-93
2022/12/06 03:00:45;;;;;;;9.80;4.00;;;;;;;10.71;95.75;98735.16;5104665;27;20050;-93
2022/12/06 03:03:33;;;;;;;12.68;5.05;;;;;;;10.80;95.27;98740.22;5103021;28;20127;-92
2022/12/06 03:06:23;;;;;;;12.30;4.10;;;;;;;10.77;95.23;98730.53;5125009;27;20039;-93
2022/12/06 03:08:56;;;;;;;10.95;3.60;;;;;;;10.75;95.43;98728.84;5117901;27;20032;-94
2022/12/06 03:11:27;;;;;;;10.45;4.22;;;;;;;10.77;96.20;98741.19;5100535;28;20512;-91
2022/12/06 03:13:59;;;;;;;12.55;4.25;;;;;;;10.67;96.58;98721.09;5101654;27;20062;-92
2022/12/06 03:16:33;;;;;;;9.60;3.78;;;;;;;10.72;95.54;98726.28;5102836;27;20130;-94
2022/12/06 03:19:05;;;;;;;8.30;4.15;;;;;;;10.65;95.95;98709.63;5101544;28;20028;-94
2022/12/06 03:21:36;;;;;;;12.15;3.90;;;;;;;10.80;95.41;98735.78;5110049;27;20043;-94
2022/12/06 03:24:06;;;;;;;6.57;3.90;;;;;;;10.62;95.51;98705.25;5108232;28;20039;-91
2022/12/06 03:26:36;;;;;;;9.50;4.13;;;;;;;10.77;96.02;98727.03;5102160;28;20121;-94
2022/12/06 03:29:04;;;;;;;;;;;;;;;10.86;94.92;98737.38;5122255;27;20031;-92
2022/12/06 03:31:35;;;;;;;11.33;4.30;;;;;;;10.61;94.77;98694.69;5113217;27;19927;-93
2022/12/06 03:34:09;;;;;;;11.10;3.88;;;;;;;10.78;95.40;98729.66;5104229;27;20046;-92
2022/12/06 03:36:36;;;;;;;8.63;4.07;;;;;;;10.72;95.56;98713.00;5117085;27;20040;-93
2022/12/06 03:39:04;;;;;;;11.23;3.80;;;;;;;10.58;95.82;98689.44;5099771;28;20024;-94
2022/12/06 03:41:37;;;;;;;11.85;5.18;;;;;;;10.73;96.81;98726.22;5102509;28;20042;-94
2022/12/06 03:44:03;;;;;;;13.57;4.75;;;;;;;10.52;96.10;98690.50;5106458;28;20047;-93
2022/12/06 03:46:35;;;;;;;10.32;4.35;;;;;;;10.53;95.56;98680.72;5121458;27;20384;-93
2022/12/06 03:49:06;;;;;;;10.77;4.15;;;;;;;10.57;95.26;98682.38;5102700;28;20042;-94
2022/12/06 03:51:36;;;;;;;9.75;4.38;;;;;;;10.58;95.01;98697.41;5101735;28;20111;-93
2022/12/06 03:54:05;;;;;;;14.40;4.88;;;;;;;10.56;95.13;98689.50;5124242;27;20039;-93
2022/12/06 03:56:39;;;;;;;10.80;4.55;;;;;;;10.76;94.98;98725.28;5095160;28;20044;-93
2022/12/06 03:59:06;;;;;;;10.45;4.30;;;;;;;10.51;95.13;98696.72;5101048;28;20043;-92
2022/12/06 04:01:32;;;;;;;11.18;4.20;;;;;;;10.55;94.85;98697.50;5102366;28;20042;-92
2022/12/06 04:03:58;;;;;;;10.77;4.00;;;;;;;10.61;95.14;98708.84;5116855;27;20046;-94
2022/12/06 04:06:27;;;;;;;10.73;5.03;;;;;;;10.62;95.51;98717.69;5098130;28;20036;-93
2022/12/06 04:09:50;;;;;;;10.20;3.72;;;;;;;10.56;94.93;98704.56;5116390;27;20070;-92
2022/12/06 04:11:38;;;;;;;8.30;3.63;;;;;;;10.54;94.69;98690.44;5085784;28;20041;-93
2022/12/06 04:14:04;;;;;;;10.98;4.43;;;;;;;10.59;94.90;98705.34;5099479;28;20036;-92
2022/12/06 04:19:34;;;;;;;9.32;3.78;;;;;;;10.60;94.66;98701.75;5179773;27;20727;-94
2022/12/06 04:25:06;;;;;;;6.75;3.45;;;;;;;10.55;94.38;98682.41;5132860;27;20807;-93
2022/12/06 04:40:14;;;;;;;10.77;3.97;;;;;;;10.76;96.16;98717.31;5140668;27;20647;-94
2022/12/06 04:45:40;;;;;;;9.60;4.03;;;;;;;10.50;96.74;98687.00;5112427;27;20382;-93
2022/12/06 04:48:10;;;;;;;8.98;3.97;;;;;;;10.50;97.99;98687.00;5109799;28;20036;-93
2022/12/06 04:50:36;;;;;;;10.57;3.83;;;;;;;10.58;99.10;98711.59;5111555;28;20135;-91
2022/12/06 04:53:02;;;;;;;11.73;4.03;;;;;;;10.41;98.07;98676.59;5111195;28;20101;-94
2022/12/06 04:55:27;;;;;;;8.55;3.80;;;;;;;10.45;98.04;98681.81;5110962;28;20036;-93
2022/12/06 04:57:54;;;;;;;9.70;3.88;;;;;;;10.41;98.72;98668.63;5104849;28;20035;-95
2022/12/06 05:00:20;;;;;;;13.02;3.72;;;;;;;10.40;99.47;98670.41;5110295;28;20060;-95
2022/12/06 05:02:47;;;;;;;9.98;3.83;;;;;;;10.47;98.73;98690.63;5110476;28;20039;-93
2022/12/06 05:05:13;;;;;;;10.70;3.95;;;;;;;10.56;97.39;98683.28;5111416;28;20040;-92
2022/12/06 05:07:39;;;;;;;9.30;3.85;;;;;;;10.53;97.19;98670.09;5110464;28;20044;-95
2022/12/06 05:10:06;;;;;;;7.30;4.00;;;;;;;10.54;98.72;98677.13;5110317;28;20046;-93
2022/12/06 05:12:32;;;;;;;8.90;4.13;;;;;;;10.61;99.04;98700.00;5110352;28;20040;-94
2022/12/06 05:14:58;;;;;;;8.98;3.78;;;;;;;10.58;99.89;98698.31;5110751;28;20089;-92
2022/12/06 05:17:24;;;;;;;9.43;4.30;;;;;;;10.48;100.00;98691.50;5109789;28;20044;-93
2022/12/06 05:19:51;;;;;;;12.05;3.83;;;;;;;10.39;100.00;98695.28;5111058;28;20040;-95
2022/12/06 05:22:17;;;;;;;10.65;4.43;;;;;;;10.43;100.00;98715.53;5110586;28;20134;-93
2022/12/06 05:24:44;;;;;;;8.65;3.92;;;;;;;10.43;100.00;98710.22;5109634;28;20104;-93
2022/12/06 05:27:10;;;;;;;10.40;4.07;;;;;;;10.45;100.00;98703.09;5110743;28;20043;-93
2022/12/06 05:29:35;;;;;;;10.10;3.72;;;;;;;10.37;100.00;98682.94;5110157;28;20572;-92
2022/12/06 05:32:01;;;;;;;9.95;3.85;;;;;;;10.57;100.00;98712.50;5106167;28;20400;-93
2022/12/06 05:34:27;;;;;;;7.45;3.70;;;;;;;10.42;100.00;98686.34;5109920;28;20101;-95
2022/12/06 05:36:55;;;;;;;11.57;3.97;;;;;;;10.39;100.00;98697.94;5110112;28;20397;-91
2022/12/06 05:39:21;;;;;;;8.15;3.70;;;;;;;10.47;100.00;98719.88;5110084;28;20135;-93
2022/12/06 05:41:47;;;;;;;9.77;3.92;;;;;;;10.23;100.00;98683.28;5108589;28;20044;-94
2022/12/06 05:44:12;;;;;;;10.07;4.68;;;;;;;10.49;100.00;98711.84;5144099;27;20062;-93
2022/12/06 05:46:38;;;;;;;10.90;3.90;;;;;;;10.32;100.00;98675.06;5110183;28;20040;-93
2022/12/06 05:49:04;;;;;;;8.80;3.67;;;;;;;10.43;100.00;98694.28;5110706;28;20120;-90
2022/12/06 05:51:30;;;;;;;8.82;3.95;;;;;;;10.32;100.00;98685.69;5110206;28;20036;-91
2022/12/06 05:54:01;;;;;;;9.27;4.53;;;;;;;10.20;100.00;98670.94;5110424;28;20036;-94
2022/12/06 05:56:30;;;;;;;9.75;3.80;;;;;;;10.26;100.00;98691.19;5098733;28;20534;-93
2022/12/06 05:58:55;;;;;;;6.53;3.67;;;;;;;10.20;100.00;98694.88;5097400;28;20058;-93
2022/12/06 06:01:21;;;;;;;8.57;4.65;;;;;;;10.07;100.00;98669.53;5096208;28;20048;-92
2022/12/06 06:03:48;;;;;;;10.35;4.03;;;;;;;10.15;100.00;98675.53;5096473;28;20146;-93
2022/12/06 06:06:14;;;;;;;10.25;4.00;;;;;;;10.04;100.00;98658.97;5096264;28;20050;-95
2022/12/06 06:08:40;;;;;;;8.48;3.88;;;;;;;10.05;100.00;98671.38;5096060;28;20457;-93
2022/12/06 06:11:07;;;;;;;8.35;3.83;;;;;;;10.15;100.00;98695.88;5096248;28;20067;-92
2022/12/06 06:13:33;;;;;;;11.82;4.38;;;;;;;10.10;100.00;98687.19;5093185;28;20040;-92
2022/12/06 06:16:00;;;;;;;10.05;4.18;;;;;;;10.06;100.00;98689.94;5096088;28;20398;-93
2022/12/06 06:18:27;;;;;;;10.43;4.00;;;;;;;9.96;100.00;98661.84;5099862;28;20445;-94
2022/12/06 06:20:57;;;;;;;13.00;4.00;;;;;;;9.99;100.00;98669.72;5097807;28;20044;-93
2022/12/06 06:23:24;;;;;;;8.43;4.32;;;;;;;10.03;100.00;98684.69;5096291;28;20041;-92
2022/12/06 06:25:53;;;;;;;8.75;4.43;;;;;;;9.96;100.00;98676.91;5096764;28;20143;-93
2022/12/06 06:28:23;;;;;;;8.77;4.40;;;;;;;10.03;100.00;98681.16;5097258;28;20044;-92
2022/12/06 06:30:50;;;;;;;9.20;4.30;;;;;;;10.00;100.00;98673.28;5097125;28;20044;-92
2022/12/06 06:33:16;;;;;;;13.35;4.63;;;;;;;9.91;100.00;98663.75;5097933;28;20516;-94
2022/12/06 06:35:43;;;;;;;8.65;4.18;;;;;;;9.95;100.00;98665.41;5098279;28;20131;-94
2022/12/06 06:38:09;;;;;;;9.57;4.35;;;;;;;10.07;100.00;98683.69;5098034;28;20048;-92
2022/12/06 06:40:35;;;;;;;8.50;3.83;;;;;;;10.13;100.00;98703.91;5098912;28;20056;-93
2022/12/06 06:43:16;;;;;;;7.38;4.43;;;;;;;10.08;100.00;98676.56;5093650;28;20043;-93
2022/12/06 06:45:45;;;;;;;7.90;3.83;;;;;;;10.16;100.00;98677.25;5095389;28;20047;-93
2022/12/06 06:48:11;;;;;;;11.57;4.20;;;;;;;10.15;100.00;98669.31;5098319;28;20040;-92
2022/12/06 06:50:40;;;;;;;9.35;4.20;;;;;;;10.16;100.00;98663.09;5095895;28;20309;-92
2022/12/06 06:53:08;;;;;;;14.05;4.22;;;;;;;10.22;100.00;98671.78;5095476;28;20036;-94
2022/12/06 06:55:35;;;;;;;12.13;4.90;;;;;;;10.39;100.00;98705.03;5095779;28;20055;-90
2022/12/06 06:58:05;;;;;;;12.57;4.75;;;;;;;10.39;100.00;98703.25;5096805;28;20432;-93
2022/12/06 07:00:31;;;;;;;9.77;4.25;;;;;;;10.38;100.00;98705.94;5095947;28;20131;-93
2022/12/06 07:03:02;;;;;;;8.80;4.18;;;;;;;10.28;100.00;98687.56;5096610;28;20036;-92
2022/12/06 07:05:54;;;;;;;12.70;4.47;;;;;;;10.15;100.00;98670.22;5096661;28;20396;-93
2022/12/06 07:08:23;;;;;;;16.48;6.65;;;;;;;10.22;100.00;98673.56;5092867;28;20075;-93
2022/12/06 07:11:10;;;;;;;15.50;6.50;;;;;;;10.47;100.00;98695.94;5091814;28;20092;-92
2022/12/06 07:13:40;;;;;;;14.77;5.30;;;;;;;10.48;100.00;98692.34;5089490;28;20090;-95
2022/12/06 07:16:11;;;;;;;14.02;5.25;;;;;;;10.48;100.00;98675.53;5096475;28;20036;-94
2022/12/06 07:18:41;;;;;;;17.20;5.70;;;;;;;10.56;100.00;98672.66;5096171;28;20404;-94
2022/12/06 07:21:10;;;;;;;;;;;;;;;10.80;100.00;98709.19;5096161;28;20427;-93
2022/12/06 07:23:44;;;;;;;;;;;;;;;10.81;100.00;98715.38;5095512;28;19920;-93
2022/12/06 07:26:21;;;;;;;11.18;6.07;;;;;;;10.58;100.00;98687.66;5097497;28;19927;-93
2022/12/06 07:28:50;;;;;;;13.23;5.50;;;;;;;10.58;100.00;98684.09;5095920;28;20163;-93
2022/12/06 07:31:32;;;;;;;12.50;5.80;;;;;;;10.51;100.00;98670.13;5096425;28;20048;-93
2022/12/06 07:34:18;;;;;;;11.82;5.80;;;;;;;10.56;100.00;98689.50;5097857;28;20070;-93
2022/12/06 07:36:44;;;;;;;13.55;5.00;;;;;;;10.57;100.00;98690.34;5096333;28;20040;-93
2022/12/06 07:39:31;;;;;;;11.30;5.30;;;;;;;10.59;98.74;98684.06;5095976;28;20044;-93
2022/12/06 07:45:52;;;;;;;12.82;5.05;;;;;;;10.65;100.00;98689.22;5146542;27;20380;-94
2022/12/06 07:48:36;;;;;;;12.30;5.10;;;;;;;10.66;100.00;98690.09;5062603;28;20052;-94
2022/12/06 07:51:16;;;;;;;10.43;4.50;;;;;;;10.62;100.00;98689.28;5101845;28;20067;-92
2022/12/06 07:53:42;;;;;;;12.75;5.32;;;;;;;10.63;100.00;98684.88;5100120;28;20465;-93
2022/12/06 07:56:09;;;;;;;13.35;5.38;;;;;;;10.80;100.00;98721.59;5099945;28;20067;-92
2022/12/06 07:58:37;;;;;;;8.40;4.72;;;;;;;10.68;100.00;98698.91;5106258;28;20044;-92
2022/12/06 08:01:04;;;;;;;11.15;4.78;;;;;;;10.72;100.00;98710.34;5101241;28;20401;-93
2022/12/06 08:03:31;;;;;;;13.50;4.85;;;;;;;10.63;100.00;98695.50;5094423;28;20046;-95
2022/12/06 08:05:59;;;;;;;13.52;5.22;;;;;;;10.58;100.00;98695.66;5110134;28;20575;-93
2022/12/06 08:08:27;;;;;;;13.67;5.37;;;;;;;10.79;100.00;98728.72;5114911;28;20048;-94
2022/12/06 08:10:53;;;;;;;17.30;5.72;;;;;;;10.60;100.00;98699.09;5111325;28;20043;-92
2022/12/06 08:13:30;;;;;;;15.75;5.90;;;;;;;10.71;100.00;98730.72;5093402;28;20100;-93
2022/12/06 08:16:08;;;;;;;13.65;5.70;;;;;;;10.62;100.00;98723.88;5092725;28;20047;-93
2022/12/06 08:18:37;;;;;;;12.90;6.03;;;;;;;10.68;100.00;98744.09;5092362;28;20044;-94
2022/12/06 08:21:07;;;;;;;;;;;;;;;10.64;100.00;98742.44;5094560;28;20063;-93
2022/12/06 08:23:38;;;;;;;14.90;6.28;;;;;;;10.38;100.00;98701.50;5094890;28;20347;-94
2022/12/06 08:26:17;;;;;;;12.73;6.63;;;;;;;10.32;100.00;98698.13;5095605;28;20059;-92
2022/12/06 08:28:44;;;;;;;14.55;6.25;;;;;;;10.31;100.00;98721.19;5127884;27;20127;-94
2022/12/06 08:31:15;;;;;;;16.33;6.40;;;;;;;10.27;100.00;98714.16;5089822;28;20501;-94
2022/12/06 08:33:52;;;;;;;13.52;6.25;;;;;;;10.27;100.00;98714.16;5099237;28;20037;-94
2022/12/06 08:36:30;;;;;;;14.77;5.78;;;;;;;10.37;100.00;98731.66;5091808;28;20059;-92
2022/12/06 08:39:00;;;;;;;11.10;5.28;;;;;;;10.27;100.00;98720.34;5097137;28;20072;-92
2022/12/06 08:44:50;;;;;;;12.52;5.90;;;;;;;10.34;100.00;98766.28;5157670;27;20382;-94
2022/12/06 08:47:24;;;;;;;13.55;5.28;;;;;;;10.41;100.00;98765.22;5135896;28;20074;-90
2022/12/06 08:49:51;;;;;;;13.65;5.70;;;;;;;10.45;100.00;98766.91;5136101;28;20050;-93
2022/12/06 08:52:20;;;;;;;10.20;5.43;;;;;;;10.37;100.00;98757.38;5132597;28;20040;-92
2022/12/06 08:54:49;;;;;;;10.63;5.38;;;;;;;10.30;100.00;98747.78;5135468;28;20039;-91
2022/12/06 08:57:15;;;;;;;14.35;6.32;;;;;;;10.30;100.00;98756.66;5135443;28;20043;-92
2022/12/06 08:59:45;;;;;;;12.75;5.72;;;;;;;10.45;100.00;98768.66;5134314;28;20040;-92
2022/12/06 09:02:14;;;;;;;11.95;5.82;;;;;;;10.35;100.00;98752.09;5134180;28;20096;-93
2022/12/06 09:04:42;;;;;;;12.75;5.80;;;;;;;10.51;100.00;98780.94;5134279;28;20035;-92
2022/12/06 09:07:08;;;;;;;22.67;6.20;;;;;;;10.34;100.00;98750.31;5134323;28;20111;-93
2022/12/06 09:09:42;;;;;;;21.35;6.22;;;;;;;10.55;100.00;98799.41;5133987;27;20035;-93
2022/12/06 09:12:08;;;;;;;14.68;5.68;;;;;;;10.56;100.00;98787.88;5129447;28;20042;-91
2022/12/06 09:14:37;;;;;;;14.48;5.85;;;;;;;10.51;100.00;98781.78;5133588;28;20425;-91
2022/12/06 09:17:15;;;;;;;12.55;6.35;;;;;;;10.48;100.00;98774.78;5133403;28;20032;-92
2022/12/06 09:19:43;;;;;;;15.85;7.35;;;;;;;10.37;100.00;98750.28;5134650;28;20039;-94
2022/12/06 09:22:21;;;;;;;15.60;8.40;;;;;;;10.43;100.00;98776.69;5133692;28;20377;-92
2022/12/06 09:24:48;;;;;;;16.45;8.63;;;;;;;10.58;100.00;98806.44;5133515;28;20051;-92
2022/12/06 09:27:15;;;;;;;14.35;7.70;;;;;;;10.34;100.00;98750.31;5133555;28;20048;-93
2022/12/06 09:29:46;;;;;;;13.27;6.82;;;;;;;10.35;100.00;98744.13;5132081;28;20435;-91
2022/12/06 09:32:18;;;;;;;12.13;6.85;;;;;;;10.59;100.00;98789.56;5130171;28;20043;-93
2022/12/06 09:34:46;;;;;;;13.48;6.20;;;;;;;10.49;100.00;98788.94;5130932;28;20092;-92
2022/12/06 09:37:15;;;;;;;12.25;6.95;;;;;;;10.31;100.00;98762.84;5130464;28;20044;-90
2022/12/06 09:39:43;;;;;;;;;;;;;;;10.54;100.00;98788.81;5129374;28;20104;-94
2022/12/06 09:42:44;;;;;;;17.95;7.30;;;;;;;10.53;100.00;98756.03;5131955;27;20395;-92
2022/12/06 09:45:23;;;;;;;18.27;11.95;;;;;;;10.55;100.00;98750.69;5132787;27;20035;-90
2022/12/06 09:48:10;;;;;;;18.50;10.27;;;;;;;10.74;100.00;98767.00;5133377;27;20035;-91
2022/12/06 09:50:44;;;;;;;21.70;9.25;;;;;;;10.65;100.00;98744.22;5131430;27;20042;-90
2022/12/06 09:53:30;;;;;;;11.93;6.75;;;;;;;10.64;100.00;98743.31;5133353;27;20107;-91
2022/12/06 09:56:05;;;;;;;12.55;5.95;;;;;;;10.58;100.00;98724.00;5119525;27;20043;-91
2022/12/06 09:58:56;;;;;;;24.80;11.45;;;;;;;10.84;100.00;98758.72;5119662;27;20119;-92
2022/12/06 10:01:36;;;;;;;20.75;12.68;;;;;;;10.87;100.00;98731.16;5116982;27;20095;-93
2022/12/06 10:04:22;;;;;;;16.23;5.88;;;;;;;10.74;100.00;98727.13;5119386;27;20035;-92
2022/12/06 10:06:58;;;;;;;13.68;8.07;;;;;;;10.77;100.00;98741.19;5117572;27;20078;-90
2022/12/06 10:09:38;;;;;;;12.48;5.60;;;;;;;10.85;100.00;98759.59;5113397;27;20043;-91
2022/12/06 10:12:36;;;;;;;20.52;6.07;;;;;;;10.78;100.00;98748.25;5118219;27;20484;-91
2022/12/06 10:15:22;;;;;;;14.50;5.57;;;;;;;10.73;100.00;98739.53;5120163;27;20038;-91
2022/12/06 10:18:15;;;;;;;17.67;6.10;;;;;;;10.82;100.00;98746.38;5113163;27;20087;-92
2022/12/06 10:20:48;;;;;;;11.63;5.22;;;;;;;10.68;100.00;98752.09;5119420;27;20548;-93
2022/12/06 10:23:30;;;;;;;12.45;5.68;;;;;;;10.52;100.00;98724.16;5118338;27;20138;-92
2022/12/06 10:26:06;;;;;;;18.90;6.20;;;;;;;10.43;100.00;98728.84;5119705;27;20548;-93
2022/12/06 10:28:41;;;;;;;13.43;6.68;;;;;;;10.32;100.00;98730.88;5118889;27;20043;-90
2022/12/06 10:31:21;;;;;;;15.35;7.60;;;;;;;10.18;100.00;98717.09;5119043;27;20038;-92
2022/12/06 10:33:54;;;;;;;16.30;7.82;;;;;;;10.44;100.00;98758.94;5119989;27;20088;-91
2022/12/06 10:36:32;;;;;;;12.55;5.80;;;;;;;10.22;100.00;98711.63;5117829;27;20129;-94
2022/12/06 10:39:06;;;;;;;17.63;6.68;;;;;;;10.28;100.00;98705.31;5120289;27;20043;-92
2022/12/06 10:41:39;;;;;;;12.93;6.40;;;;;;;10.50;100.00;98750.81;5120169;27;20583;-93
2022/12/06 10:44:15;;;;;;;16.35;6.97;;;;;;;10.48;100.00;98745.53;5103064;28;20051;-92
2022/12/06 10:49:55;;;;;;;14.30;7.40;;;;;;;10.52;100.00;98732.13;5177075;27;20382;-91
2022/12/06 10:52:37;;;;;;;16.50;6.78;;;;;;;10.40;100.00;98696.13;5156651;27;20038;-92
2022/12/06 10:55:18;;;;;;;13.32;6.32;;;;;;;10.62;100.00;98707.03;5162740;27;20047;-93
2022/12/06 10:57:53;;;;;;;11.70;5.57;;;;;;;10.57;100.00;98691.22;5158745;27;20129;-91
2022/12/06 11:00:24;;;;;;;13.23;4.97;;;;;;;10.74;100.00;98701.38;5167518;27;20551;-90
2022/12/06 11:02:59;;;;;;;10.40;5.00;;;;;;;10.78;100.00;98683.53;5160111;27;20042;-92
2022/12/06 11:05:33;;;;;;;11.25;7.00;;;;;;;10.91;100.00;98671.63;5165602;27;20031;-94
2022/12/06 11:08:05;;;;;;;14.32;8.43;;;;;;;11.02;100.00;98677.50;5164838;27;20038;-90
2022/12/06 11:10:37;;;;;;;19.05;11.43;;;;;;;10.98;100.00;98667.88;5164475;27;20042;-91
2022/12/06 11:13:19;;;;;;;22.52;12.65;;;;;;;10.95;100.00;98667.97;5157777;27;20054;-92
2022/12/06 11:15:51;;;;;;;16.77;10.00;;;;;;;10.89;100.00;98666.34;5159281;27;20038;-90
2022/12/06 11:18:19;;;;;;;18.80;11.40;;;;;;;10.95;100.00;98662.66;5157174;27;20154;-91
2022/12/06 11:20:52;;;;;;;18.17;9.95;;;;;;;10.90;100.00;98657.44;5156226;27;20043;-92
2022/12/06 11:23:25;;;;;;;18.98;9.32;;;;;;;10.97;100.00;98655.47;5167335;27;20034;-92
2022/12/06 11:26:03;;;;;;;16.73;7.88;;;;;;;10.99;100.00;98645.66;5160751;27;20038;-91
2022/12/06 11:28:35;;;;;;;15.40;8.02;;;;;;;11.26;100.00;98672.34;5156820;27;20137;-91
2022/12/06 11:31:17;;;;;;;14.80;8.18;;;;;;;11.24;100.00;98653.75;5164903;27;20069;-91
2022/12/06 11:33:45;;;;;;;18.92;11.30;;;;;;;11.24;100.00;98647.56;5157401;27;20050;-91
2022/12/06 11:36:13;;;;;;;17.17;11.10;;;;;;;11.20;100.00;98632.59;5156248;27;20041;-90
2022/12/06 11:38:43;;;;;;;20.75;11.38;;;;;;;11.27;100.00;98640.31;5161457;27;20494;-92
2022/12/06 11:41:11;;;;;;;18.85;10.27;;;;;;;11.18;100.00;98619.34;5159931;27;20542;-92
2022/12/06 11:43:38;;;;;;;14.88;7.88;;;;;;;11.35;100.00;98628.59;5161642;27;20091;-92
2022/12/06 11:46:07;;;;;;;12.60;8.15;;;;;;;11.20;100.00;98617.50;5163629;27;20113;-92
2022/12/06 11:48:38;;;;;;;14.82;9.15;;;;;;;11.16;100.00;98620.31;5154991;27;20406;-91
2022/12/06 11:51:14;;;;;;;15.52;7.32;;;;;;;11.22;100.00;98631.63;5157807;27;20134;-91
2022/12/06 11:53:52;;;;;;;12.88;7.78;;;;;;;11.13;100.00;98631.06;5155528;27;20043;-91
2022/12/06 11:56:29;;;;;;;14.63;7.93;;;;;;;11.07;100.00;98627.66;5151810;27;20043;-90
2022/12/06 11:59:05;;;;;;;12.38;7.15;;;;;;;10.90;100.00;98614.00;5158011;27;20041;-91
2022/12/06 12:01:42;;;;;;;13.25;7.57;;;;;;;10.89;100.00;98607.81;5140342;27;20054;-92
2022/12/06 12:04:39;;;;;;;16.27;7.25;;;;;;;10.94;100.00;98634.28;5135456;27;21444;-91
2022/12/06 12:07:15;;;;;;;12.93;8.30;;;;;;;10.82;100.00;98632.88;5036458;28;20131;-91
2022/12/06 12:09:51;;;;;;;21.65;10.02;;;;;;;10.68;100.00;98613.78;5037970;28;20045;-90
2022/12/06 12:12:24;;;;;;;16.40;9.73;;;;;;;10.72;100.00;98626.09;5036988;28;20482;-92